Time;durP1;ratioP1;P1;durP2;ratioP2;P2;SDS_P1;SDS_P2;PMS_P1;PMS_P2;Temp;Humidity;BMP_temperature;BMP_pressure;BME280_temperature;BME280_humidity;BME280_pressure;Samples;Min_cycle;Max_cycle;Signal;HPM_P1;HPM_P2
2023/09/05 00:01:33;;;;;;;10.37;4.70;;;13.60;77.20;;;;;;4791765;29;20057;-93
2023/09/05 00:04:00;;;;;;;10.45;4.15;;;13.60;77.20;;;;;;4791720;29;20047;-92
2023/09/05 00:06:27;;;;;;;10.40;4.47;;;13.60;77.00;;;;;;4776994;29;20057;-92
2023/09/05 00:08:54;;;;;;;11.90;4.47;;;13.50;77.10;;;;;;4791676;29;20047;-93
2023/09/05 00:11:21;;;;;;;8.38;4.38;;;13.50;77.40;;;;;;4791580;29;20154;-93
2023/09/05 00:13:48;;;;;;;8.80;4.10;;;13.50;77.50;;;;;;4791952;29;20062;-92
2023/09/05 00:16:15;;;;;;;11.25;4.63;;;13.50;77.70;;;;;;4791604;29;20050;-92
2023/09/05 00:18:43;;;;;;;7.95;4.10;;;13.50;77.80;;;;;;4791720;29;20439;-94
2023/09/05 00:21:10;;;;;;;7.82;3.90;;;13.40;77.80;;;;;;4791391;29;20058;-93
2023/09/05 00:23:40;;;;;;;9.57;4.38;;;13.50;77.60;;;;;;4791470;29;20092;-93
2023/09/05 00:26:07;;;;;;;9.60;4.53;;;13.50;77.60;;;;;;4791475;29;20405;-93
2023/09/05 00:28:34;;;;;;;12.32;4.63;;;13.40;77.80;;;;;;4776667;29;20130;-93
2023/09/05 00:31:02;;;;;;;9.52;4.60;;;13.40;77.90;;;;;;4791682;29;20149;-92
2023/09/05 00:33:29;;;;;;;9.15;5.05;;;13.40;78.10;;;;;;4776635;29;20055;-93
2023/09/05 00:35:57;;;;;;;9.10;4.15;;;13.40;78.00;;;;;;4791395;29;20055;-94
2023/09/05 00:38:24;;;;;;;9.10;4.37;;;13.40;78.10;;;;;;4791625;29;20552;-93
2023/09/05 00:40:51;;;;;;;9.85;4.35;;;13.40;77.90;;;;;;4791326;29;20533;-92
2023/09/05 00:43:20;;;;;;;9.88;4.22;;;13.40;77.90;;;;;;4776781;29;20050;-93
2023/09/05 00:45:51;;;;;;;11.90;4.40;;;13.30;78.00;;;;;;4777563;29;20062;-93
2023/09/05 00:48:23;;;;;;;11.77;4.70;;;13.40;78.00;;;;;;4794531;29;20100;-93
2023/09/05 00:50:51;;;;;;;12.23;4.43;;;13.40;77.70;;;;;;4794354;29;20064;-92
2023/09/05 00:53:18;;;;;;;10.63;4.32;;;13.30;77.80;;;;;;4794410;29;20065;-93
2023/09/05 00:55:45;;;;;;;11.30;4.28;;;13.30;77.90;;;;;;4779756;29;20501;-93
2023/09/05 00:58:13;;;;;;;12.43;4.38;;;13.30;77.70;;;;;;4779766;29;20043;-92
2023/09/05 01:00:40;;;;;;;10.15;4.00;;;13.40;77.40;;;;;;4794470;29;20047;-92
2023/09/05 01:03:07;;;;;;;9.30;4.10;;;13.40;77.00;;;;;;4779496;29;20108;-91
2023/09/05 01:05:37;;;;;;;10.18;4.25;;;13.50;76.60;;;;;;4794401;29;20051;-92
2023/09/05 01:08:14;;;;;;;10.60;5.00;;;13.50;76.70;;;;;;4793932;29;20463;-93
2023/09/05 01:10:46;;;;;;;10.00;5.03;;;13.40;77.30;;;;;;4794219;29;20047;-92
2023/09/05 01:13:25;;;;;;;9.32;4.47;;;13.30;77.40;;;;;;4794176;29;20093;-93
2023/09/05 01:15:54;;;;;;;12.10;5.00;;;13.20;77.60;;;;;;4779549;29;20082;-92
2023/09/05 01:18:21;;;;;;;10.43;4.13;;;13.10;77.80;;;;;;4779241;29;20451;-91
2023/09/05 01:21:10;;;;;;;12.85;4.65;;;13.10;77.70;;;;;;4793695;29;20047;-92
2023/09/05 01:23:44;;;;;;;11.32;5.13;;;13.10;77.70;;;;;;4793832;29;20067;-93
2023/09/05 01:26:11;;;;;;;10.32;4.65;;;13.00;78.10;;;;;;4793772;29;20146;-93
2023/09/05 01:28:41;;;;;;;9.37;4.60;;;13.00;78.40;;;;;;4779009;29;20418;-93
2023/09/05 01:31:10;;;;;;;9.38;4.47;;;12.90;78.60;;;;;;4793354;29;20051;-92
2023/09/05 01:33:41;;;;;;;11.93;5.05;;;12.90;78.30;;;;;;4793688;29;20554;-94
2023/09/05 01:36:08;;;;;;;12.77;4.70;;;12.90;78.40;;;;;;4793609;29;20055;-92
2023/09/05 01:38:35;;;;;;;10.60;4.40;;;13.00;78.40;;;;;;4793475;29;20069;-92
2023/09/05 01:41:02;;;;;;;12.13;4.63;;;13.00;78.20;;;;;;4793614;29;20078;-93
2023/09/05 01:43:29;;;;;;;11.07;4.75;;;13.00;77.90;;;;;;4778414;29;20536;-92
2023/09/05 01:45:56;;;;;;;12.40;6.30;;;13.00;78.10;;;;;;4793385;29;20058;-93
2023/09/05 01:48:23;;;;;;;10.02;4.30;;;13.00;78.40;;;;;;4793341;29;20456;-93
2023/09/05 01:50:51;;;;;;;9.90;4.38;;;13.00;77.90;;;;;;4778513;29;20051;-92
2023/09/05 01:53:18;;;;;;;11.97;5.10;;;13.00;77.90;;;;;;4793368;29;20111;-94
2023/09/05 01:55:45;;;;;;;9.82;5.15;;;13.00;78.10;;;;;;4793308;29;20146;-92
2023/09/05 01:58:12;;;;;;;8.38;4.72;;;12.80;78.70;;;;;;4777653;29;20066;-93
2023/09/05 02:00:39;;;;;;;10.85;5.28;;;12.80;79.10;;;;;;4778326;29;20108;-94
2023/09/05 02:03:06;;;;;;;9.57;4.57;;;12.70;79.10;;;;;;4792817;29;20050;-92
2023/09/05 02:05:34;;;;;;;9.37;4.57;;;12.80;78.60;;;;;;4793108;29;20069;-92
2023/09/05 02:08:01;;;;;;;9.90;4.70;;;12.80;78.60;;;;;;4778010;29;20100;-92
2023/09/05 02:10:30;;;;;;;10.45;4.60;;;12.90;78.20;;;;;;4777986;29;20053;-92
2023/09/05 02:12:57;;;;;;;11.13;5.00;;;12.80;78.30;;;;;;4792835;29;20482;-92
2023/09/05 02:15:24;;;;;;;12.30;4.85;;;12.80;78.50;;;;;;4792868;29;20055;-92
2023/09/05 02:17:51;;;;;;;9.47;4.87;;;12.80;78.30;;;;;;4792946;29;20061;-92
2023/09/05 02:20:18;;;;;;;9.65;4.72;;;12.80;78.30;;;;;;4792900;29;20145;-92
2023/09/05 02:22:45;;;;;;;8.70;4.30;;;12.70;78.30;;;;;;4792701;29;20051;-92
2023/09/05 02:25:12;;;;;;;10.48;4.53;;;12.70;78.20;;;;;;4792726;29;20055;-91
2023/09/05 02:27:40;;;;;;;8.85;4.55;;;12.60;78.40;;;;;;4792707;29;20053;-92
2023/09/05 02:30:07;;;;;;;11.20;4.70;;;12.60;78.70;;;;;;4792628;29;20051;-92
2023/09/05 02:32:34;;;;;;;10.10;4.85;;;12.50;79.10;;;;;;4792724;29;20141;-93
2023/09/05 02:35:01;;;;;;;9.20;4.82;;;12.50;79.20;;;;;;4792320;29;20088;-92
2023/09/05 02:37:28;;;;;;;9.45;4.38;;;12.50;79.20;;;;;;4792572;29;20578;-91
2023/09/05 02:39:55;;;;;;;9.70;4.70;;;12.50;79.30;;;;;;4792568;29;20505;-92
2023/09/05 02:42:23;;;;;;;9.53;4.70;;;12.50;79.20;;;;;;4792341;29;20058;-92
2023/09/05 02:44:51;;;;;;;10.35;4.03;;;12.50;79.00;;;;;;4792321;29;20047;-93
2023/09/05 02:47:18;;;;;;;10.15;4.20;;;12.60;79.00;;;;;;4777459;29;20087;-93
2023/09/05 02:49:45;;;;;;;10.60;4.43;;;12.60;78.70;;;;;;4792720;29;20444;-92
2023/09/05 02:52:12;;;;;;;10.30;4.78;;;12.70;78.60;;;;;;4777575;29;20058;-93
2023/09/05 02:54:39;;;;;;;9.37;4.53;;;12.70;78.50;;;;;;4792228;29;20051;-94
2023/09/05 02:57:06;;;;;;;10.95;4.82;;;12.70;78.30;;;;;;4792351;29;20061;-92
2023/09/05 02:59:33;;;;;;;9.90;4.68;;;12.70;78.30;;;;;;4792286;29;20058;-92
2023/09/05 03:02:00;;;;;;;8.35;4.10;;;12.60;78.40;;;;;;4792164;29;20094;-92
2023/09/05 03:04:32;;;;;;;8.13;4.53;;;12.50;78.60;;;;;;4792308;29;20050;-92
2023/09/05 03:07:02;;;;;;;8.87;4.53;;;12.50;78.70;;;;;;4792161;29;20153;-93
2023/09/05 03:09:29;;;;;;;15.75;4.50;;;12.50;78.70;;;;;;4791766;29;20055;-91
2023/09/05 03:11:57;;;;;;;10.20;4.65;;;12.50;78.60;;;;;;4777144;29;20047;-90
2023/09/05 03:14:24;;;;;;;12.02;4.72;;;12.50;78.60;;;;;;4792077;29;20049;-91
2023/09/05 03:16:52;;;;;;;11.50;4.60;;;12.50;78.70;;;;;;4792263;29;20061;-91
2023/09/05 03:19:21;;;;;;;10.57;5.20;;;12.40;79.00;;;;;;4776928;29;20157;-91
2023/09/05 03:21:50;;;;;;;9.70;5.38;;;12.40;79.00;;;;;;4791739;29;20043;-92
2023/09/05 03:24:18;;;;;;;11.88;4.93;;;12.40;79.10;;;;;;4791672;29;20050;-91
2023/09/05 03:26:46;;;;;;;11.38;5.00;;;12.40;79.20;;;;;;4791770;29;20047;-91
2023/09/05 03:29:14;;;;;;;12.00;5.50;;;12.40;79.40;;;;;;4791661;29;20498;-92
2023/09/05 03:31:41;;;;;;;9.67;4.87;;;12.30;79.70;;;;;;4791585;29;20047;-92
2023/09/05 03:34:09;;;;;;;9.77;4.47;;;12.40;79.60;;;;;;4791646;29;20142;-92
2023/09/05 03:36:36;;;;;;;9.60;5.22;;;12.40;79.30;;;;;;4776864;29;20057;-94
2023/09/05 03:39:04;;;;;;;9.38;4.60;;;12.30;79.50;;;;;;4791589;29;20054;-93
2023/09/05 03:41:31;;;;;;;9.27;4.30;;;12.30;79.70;;;;;;4791688;29;20051;-91
2023/09/05 03:43:58;;;;;;;10.57;4.97;;;12.40;79.60;;;;;;4776739;29;20047;-92
2023/09/05 03:46:25;;;;;;;10.13;4.95;;;12.50;79.20;;;;;;4791664;29;20566;-93
2023/09/05 03:48:55;;;;;;;9.13;4.90;;;12.50;79.20;;;;;;4776784;29;20506;-91
2023/09/05 03:51:23;;;;;;;10.52;4.82;;;12.50;79.10;;;;;;4791573;29;20050;-92
2023/09/05 03:53:50;;;;;;;9.73;4.78;;;12.50;79.30;;;;;;4776801;29;20061;-93
2023/09/05 03:56:17;;;;;;;11.97;4.67;;;12.50;79.20;;;;;;4791806;29;20059;-92
2023/09/05 03:58:44;;;;;;;9.77;4.72;;;12.50;79.30;;;;;;4777158;29;20502;-94
2023/09/05 04:01:15;;;;;;;10.48;4.68;;;12.50;79.30;;;;;;4791223;29;20101;-90
2023/09/05 04:03:43;;;;;;;13.98;4.78;;;12.50;79.30;;;;;;4791386;29;20055;-90
2023/09/05 04:06:10;;;;;;;12.05;5.10;;;12.50;79.30;;;;;;4776505;29;20146;-91
2023/09/05 04:08:37;;;;;;;10.10;4.50;;;12.40;79.20;;;;;;4791190;29;20066;-91
2023/09/05 04:11:04;;;;;;;12.88;4.95;;;12.50;79.10;;;;;;4791355;29;20051;-91
2023/09/05 04:13:31;;;;;;;11.18;4.82;;;12.50;79.00;;;;;;4790965;29;20154;-91
2023/09/05 04:16:05;;;;;;;12.23;5.00;;;12.40;79.20;;;;;;4776573;29;20501;-91
2023/09/05 04:18:34;;;;;;;9.98;5.18;;;12.30;79.40;;;;;;4791113;29;20050;-91
2023/09/05 04:21:01;;;;;;;9.50;5.33;;;12.20;79.60;;;;;;4792653;29;20054;-91
2023/09/05 04:23:28;;;;;;;10.45;4.63;;;12.20;79.80;;;;;;4779923;29;20047;-91
2023/09/05 04:26:00;;;;;;;12.00;5.18;;;12.20;79.80;;;;;;4779960;29;20050;-90
2023/09/05 04:28:29;;;;;;;10.65;5.40;;;12.20;79.60;;;;;;4794474;29;20047;-91
2023/09/05 04:31:00;;;;;;;10.88;5.68;;;12.20;79.70;;;;;;4779627;29;20047;-91
2023/09/05 04:33:31;;;;;;;10.33;4.90;;;12.10;79.90;;;;;;4794603;29;20097;-90
2023/09/05 04:35:59;;;;;;;9.98;4.68;;;12.10;80.20;;;;;;4794427;29;20050;-91
2023/09/05 04:38:27;;;;;;;11.18;5.30;;;12.20;80.00;;;;;;4794616;29;20054;-91
2023/09/05 04:40:54;;;;;;;8.93;4.30;;;12.30;80.00;;;;;;4779678;29;20081;-91
2023/09/05 04:43:21;;;;;;;9.98;4.53;;;12.30;79.90;;;;;;4794366;29;20096;-87
2023/09/05 04:45:54;;;;;;;8.03;3.83;;;12.40;79.60;;;;;;4791896;29;20055;-89
2023/09/05 04:48:21;;;;;;;10.15;4.30;;;12.50;79.20;;;;;;4793784;29;20409;-89
2023/09/05 04:50:48;;;;;;;10.40;4.00;;;12.50;78.90;;;;;;4788000;29;20046;-88
2023/09/05 04:53:15;;;;;;;9.48;4.57;;;12.60;79.10;;;;;;4776720;29;20050;-88
2023/09/05 04:55:42;;;;;;;10.98;4.68;;;12.60;79.00;;;;;;4793015;29;20394;-89
2023/09/05 04:58:14;;;;;;;12.37;5.07;;;12.60;79.00;;;;;;4793594;29;20070;-89
2023/09/05 05:00:41;;;;;;;10.57;4.32;;;12.70;78.80;;;;;;4790061;29;20047;-89
2023/09/05 05:03:09;;;;;;;8.75;4.57;;;12.70;79.00;;;;;;4778812;29;20082;-93
2023/09/05 05:05:36;;;;;;;10.57;4.80;;;12.70;79.00;;;;;;4773145;30;20055;-93
2023/09/05 05:08:03;;;;;;;11.55;5.20;;;12.60;79.10;;;;;;4758488;30;20070;-93
2023/09/05 05:10:33;;;;;;;9.93;4.07;;;12.60;79.30;;;;;;4773411;29;20051;-93
2023/09/05 05:13:01;;;;;;;8.70;4.40;;;12.70;79.50;;;;;;4793809;29;20042;-89
2023/09/05 05:15:28;;;;;;;9.73;4.97;;;12.70;79.60;;;;;;4778687;29;20066;-89
2023/09/05 05:17:55;;;;;;;10.57;4.63;;;12.70;79.60;;;;;;4785870;29;20050;-90
2023/09/05 05:20:22;;;;;;;8.73;4.30;;;12.80;79.70;;;;;;4778828;29;20046;-89
2023/09/05 05:22:50;;;;;;;9.60;4.13;;;12.80;79.70;;;;;;4793425;29;20524;-89
2023/09/05 05:25:17;;;;;;;11.93;5.80;;;13.00;79.60;;;;;;4778376;29;20051;-90
2023/09/05 05:27:44;;;;;;;9.45;4.63;;;13.00;79.70;;;;;;4793127;29;20043;-89
2023/09/05 05:30:12;;;;;;;8.77;4.38;;;13.00;79.80;;;;;;4778452;29;20104;-90
2023/09/05 05:32:39;;;;;;;9.88;4.55;;;13.10;80.00;;;;;;4792287;29;20065;-89
2023/09/05 05:35:07;;;;;;;8.37;4.40;;;13.10;79.90;;;;;;4793290;29;20112;-89
2023/09/05 05:37:34;;;;;;;10.38;4.88;;;13.20;80.30;;;;;;4785587;29;20146;-89
2023/09/05 05:40:01;;;;;;;11.30;5.47;;;13.10;80.70;;;;;;4793422;29;20062;-89
2023/09/05 05:42:28;;;;;;;10.57;5.10;;;13.10;80.80;;;;;;4793069;29;20441;-89
2023/09/05 05:44:55;;;;;;;9.43;4.50;;;13.10;80.90;;;;;;4793049;29;20063;-89
2023/09/05 05:47:22;;;;;;;9.17;4.80;;;13.20;80.80;;;;;;4792947;29;20089;-89
2023/09/05 05:49:49;;;;;;;9.52;4.75;;;13.30;80.80;;;;;;4778233;29;20066;-90
2023/09/05 05:52:17;;;;;;;10.30;4.47;;;13.50;80.90;;;;;;4793177;29;20061;-88
2023/09/05 05:54:44;;;;;;;8.70;4.00;;;13.50;80.60;;;;;;4793045;29;20564;-88
2023/09/05 05:57:12;;;;;;;9.30;4.60;;;13.80;80.30;;;;;;4778396;29;20047;-89
2023/09/05 05:59:40;;;;;;;8.90;4.33;;;13.90;79.70;;;;;;4792962;29;20043;-89
2023/09/05 06:02:07;;;;;;;9.32;4.40;;;14.10;79.20;;;;;;4792872;29;20054;-90
2023/09/05 06:04:34;;;;;;;13.52;4.72;;;14.20;78.80;;;;;;4783403;30;20047;-89
2023/09/05 06:07:01;;;;;;;12.45;5.20;;;14.40;78.60;;;;;;4786974;29;20138;-89
2023/09/05 06:09:28;;;;;;;11.70;5.47;;;14.50;78.20;;;;;;4792590;29;20505;-90
2023/09/05 06:11:55;;;;;;;14.17;5.17;;;14.70;78.30;;;;;;4792578;29;20059;-89
2023/09/05 06:14:22;;;;;;;12.18;5.60;;;14.80;78.10;;;;;;4792805;29;20059;-89
2023/09/05 06:16:49;;;;;;;12.18;5.20;;;14.90;78.20;;;;;;4792338;29;20154;-90
2023/09/05 06:19:17;;;;;;;9.65;4.60;;;15.00;78.10;;;;;;4792497;29;20058;-89
2023/09/05 06:21:46;;;;;;;12.65;5.05;;;15.10;77.90;;;;;;4792412;29;20395;-89
2023/09/05 06:24:14;;;;;;;9.07;4.27;;;15.20;77.10;;;;;;4792490;29;20047;-89
2023/09/05 06:26:44;;;;;;;8.60;4.60;;;15.30;77.00;;;;;;4792546;29;20047;-89
2023/09/05 06:29:12;;;;;;;9.60;4.72;;;15.50;76.70;;;;;;4792428;29;20054;-89
2023/09/05 06:31:39;;;;;;;9.25;4.55;;;15.60;76.40;;;;;;4792582;29;20049;-89
2023/09/05 06:34:07;;;;;;;9.80;4.65;;;15.70;75.40;;;;;;4777611;29;20073;-88
2023/09/05 06:36:34;;;;;;;9.20;3.97;;;15.80;74.70;;;;;;4777336;29;20145;-89
2023/09/05 06:39:03;;;;;;;9.25;4.15;;;16.00;74.60;;;;;;4792113;29;20059;-89
2023/09/05 06:41:30;;;;;;;8.30;4.30;;;16.10;74.70;;;;;;4777284;29;20065;-89
2023/09/05 06:43:57;;;;;;;10.45;4.45;;;16.20;75.20;;;;;;4791629;29;20087;-89
2023/09/05 06:46:24;;;;;;;9.52;4.28;;;16.30;75.00;;;;;;4792752;29;20405;-89
2023/09/05 06:48:51;;;;;;;9.50;4.43;;;16.50;75.20;;;;;;4792103;29;20496;-89
2023/09/05 06:51:18;;;;;;;8.05;4.60;;;16.50;74.60;;;;;;4791626;29;20502;-90
2023/09/05 06:53:45;;;;;;;8.90;4.40;;;16.60;74.70;;;;;;4792042;29;20047;-88
2023/09/05 06:56:12;;;;;;;9.57;4.30;;;16.80;74.20;;;;;;4777245;29;20051;-89
2023/09/05 06:58:39;;;;;;;10.43;3.95;;;17.00;73.50;;;;;;4791715;29;20459;-89
2023/09/05 07:01:06;;;;;;;9.27;4.17;;;17.10;73.10;;;;;;4792011;29;20061;-89
2023/09/05 07:03:33;;;;;;;8.27;3.40;;;17.20;72.90;;;;;;4776862;29;20055;-89
2023/09/05 07:06:03;;;;;;;9.25;4.40;;;17.40;72.30;;;;;;4791549;29;20505;-89
2023/09/05 07:08:33;;;;;;;9.48;4.13;;;17.40;73.70;;;;;;4791502;29;20062;-89
2023/09/05 07:11:00;;;;;;;9.05;3.78;;;17.60;72.20;;;;;;4791749;29;20498;-89
2023/09/05 07:13:28;;;;;;;8.63;3.87;;;17.70;72.50;;;;;;4791752;29;20080;-88
2023/09/05 07:15:57;;;;;;;7.93;3.50;;;17.80;71.70;;;;;;4791484;29;20517;-89
2023/09/05 07:18:24;;;;;;;6.93;3.63;;;17.90;71.60;;;;;;4791643;29;20153;-89
2023/09/05 07:20:52;;;;;;;7.47;3.58;;;18.00;72.10;;;;;;4791341;29;20050;-90
2023/09/05 07:23:19;;;;;;;8.25;3.10;;;18.10;71.90;;;;;;4776798;29;20509;-89
2023/09/05 07:25:46;;;;;;;7.63;3.60;;;18.20;71.50;;;;;;4791676;29;20043;-90
2023/09/05 07:28:13;;;;;;;9.98;3.58;;;18.40;69.90;;;;;;4791592;29;20051;-89
2023/09/05 07:30:41;;;;;;;7.70;3.20;;;18.50;70.30;;;;;;4776773;29;20498;-90
2023/09/05 07:33:09;;;;;;;10.00;3.30;;;18.60;71.00;;;;;;4791372;29;20061;-90
2023/09/05 07:35:36;;;;;;;7.75;3.28;;;18.80;69.00;;;;;;4776514;29;20142;-90
2023/09/05 07:38:03;;;;;;;8.53;3.23;;;18.90;69.40;;;;;;4791566;29;20059;-89
2023/09/05 07:40:30;;;;;;;7.68;3.00;;;19.00;68.90;;;;;;4776627;29;20054;-89
2023/09/05 07:43:00;;;;;;;7.32;3.35;;;19.10;69.20;;;;;;4791241;29;20083;-89
2023/09/05 07:45:27;;;;;;;7.15;2.88;;;19.30;68.40;;;;;;4791307;29;20047;-89
2023/09/05 07:47:54;;;;;;;7.30;2.90;;;19.40;69.00;;;;;;4791440;29;20054;-90
2023/09/05 07:50:22;;;;;;;8.37;3.30;;;19.50;67.20;;;;;;4776429;29;20051;-89
2023/09/05 07:52:49;;;;;;;8.57;2.80;;;19.60;67.30;;;;;;4776678;29;20051;-90
2023/09/05 07:55:16;;;;;;;6.78;2.80;;;19.70;65.10;;;;;;4776846;29;20051;-90
2023/09/05 07:57:44;;;;;;;7.72;2.47;;;19.70;64.00;;;;;;4794946;29;20055;-90
2023/09/05 08:00:15;;;;;;;6.47;2.67;;;19.80;63.70;;;;;;4794869;29;20084;-89
2023/09/05 08:02:43;;;;;;;5.70;2.43;;;19.80;63.20;;;;;;4794662;29;20058;-89
2023/09/05 08:05:10;;;;;;;6.93;2.50;;;19.90;64.10;;;;;;4779857;29;20087;-89
2023/09/05 08:07:38;;;;;;;6.20;2.30;;;20.00;64.50;;;;;;4794584;29;20055;-90
2023/09/05 08:10:06;;;;;;;6.70;2.25;;;20.00;62.30;;;;;;4779809;29;20058;-90
2023/09/05 08:12:34;;;;;;;7.60;2.25;;;20.10;62.50;;;;;;4794776;29;20050;-90
2023/09/05 08:15:01;;;;;;;6.37;2.57;;;20.20;63.60;;;;;;4794729;29;20490;-91
2023/09/05 08:17:30;;;;;;;4.80;2.13;;;20.30;65.20;;;;;;4780106;29;20046;-91
2023/09/05 08:19:58;;;;;;;6.10;2.22;;;20.40;61.80;;;;;;4780054;29;20058;-91
2023/09/05 08:22:25;;;;;;;5.88;2.40;;;20.50;60.90;;;;;;4794832;29;20071;-92
2023/09/05 08:24:53;;;;;;;6.47;2.50;;;20.60;61.30;;;;;;4779755;29;20047;-91
2023/09/05 08:27:28;;;;;;;6.67;2.23;;;20.60;62.00;;;;;;4794581;29;20051;-91
2023/09/05 08:29:57;;;;;;;6.47;2.60;;;20.70;60.30;;;;;;4794419;29;20051;-90
2023/09/05 08:32:24;;;;;;;5.72;2.42;;;20.80;62.10;;;;;;4794436;29;20146;-91
2023/09/05 08:34:51;;;;;;;6.82;2.72;;;20.90;61.30;;;;;;4794392;29;20098;-90
2023/09/05 08:37:19;;;;;;;6.30;2.58;;;20.90;63.10;;;;;;4794207;29;20051;-90
2023/09/05 08:39:46;;;;;;;7.40;2.80;;;20.90;61.40;;;;;;4794409;29;20521;-90
2023/09/05 08:42:14;;;;;;;6.22;2.55;;;21.00;62.20;;;;;;4794226;29;20059;-89
2023/09/05 08:44:41;;;;;;;7.57;2.83;;;21.00;61.90;;;;;;4794298;29;20105;-90
2023/09/05 08:47:09;;;;;;;7.25;3.10;;;21.00;62.70;;;;;;4779373;29;20051;-89
2023/09/05 08:49:37;;;;;;;6.65;2.90;;;20.90;63.90;;;;;;4779366;29;20087;-90
2023/09/05 08:52:06;;;;;;;6.57;3.20;;;21.00;63.40;;;;;;4779354;29;20062;-90
2023/09/05 08:54:33;;;;;;;7.22;3.13;;;21.00;63.60;;;;;;4794002;29;20077;-90
2023/09/05 08:57:02;;;;;;;6.60;3.05;;;21.00;62.30;;;;;;4793908;29;20067;-91
2023/09/05 08:59:31;;;;;;;9.63;3.70;;;20.90;63.20;;;;;;4793906;29;20047;-90
2023/09/05 09:02:00;;;;;;;8.27;3.63;;;20.90;63.40;;;;;;4793436;29;20059;-90
2023/09/05 09:04:27;;;;;;;8.17;4.13;;;21.00;64.10;;;;;;4793485;29;20062;-89
2023/09/05 09:06:55;;;;;;;7.72;3.85;;;20.90;62.90;;;;;;4793486;29;20055;-90
2023/09/05 09:09:38;;;;;;;7.00;2.97;;;20.90;63.70;;;;;;4793790;29;20111;-90
2023/09/05 09:12:06;;;;;;;8.00;3.97;;;21.10;63.40;;;;;;4793879;29;20544;-91
2023/09/05 09:14:33;;;;;;;9.27;4.00;;;21.10;61.80;;;;;;4778883;29;20096;-92
2023/09/05 09:17:02;;;;;;;9.53;4.17;;;21.10;61.20;;;;;;4793910;29;20062;-91
2023/09/05 09:19:29;;;;;;;8.70;3.78;;;21.10;62.20;;;;;;4793556;29;20069;-90
2023/09/05 09:22:02;;;;;;;10.02;3.90;;;21.20;62.40;;;;;;4793624;29;20058;-89
2023/09/05 09:24:37;;;;;;;11.65;4.07;;;21.30;62.10;;;;;;4793300;29;20047;-91
2023/09/05 09:27:05;;;;;;;8.23;3.67;;;21.50;62.00;;;;;;4793288;29;20055;-91
2023/09/05 09:29:33;;;;;;;9.20;4.13;;;21.50;61.00;;;;;;4778772;29;20146;-91
2023/09/05 09:32:05;;;;;;;9.00;3.47;;;21.60;61.70;;;;;;4793260;29;20467;-91
2023/09/05 09:34:37;;;;;;;6.90;3.30;;;21.50;59.60;;;;;;4793554;29;20079;-90
2023/09/05 09:37:04;;;;;;;8.35;3.75;;;21.60;62.00;;;;;;4793205;29;20078;-90
2023/09/05 09:39:32;;;;;;;11.15;4.20;;;21.70;61.70;;;;;;4793383;29;20058;-90
2023/09/05 09:42:00;;;;;;;8.57;3.50;;;21.70;61.10;;;;;;4793466;29;20058;-90
2023/09/05 09:44:30;;;;;;;9.27;3.95;;;21.80;60.60;;;;;;4793056;29;20062;-90
2023/09/05 09:46:59;;;;;;;7.95;3.90;;;22.00;60.20;;;;;;4793028;29;20171;-91
2023/09/05 09:49:28;;;;;;;41.85;14.18;;;21.90;60.30;;;;;;4793023;29;20471;-91
2023/09/05 09:51:57;;;;;;;8.43;4.00;;;21.90;60.50;;;;;;4778420;29;20055;-89
2023/09/05 09:54:37;;;;;;;8.10;3.47;;;21.90;60.40;;;;;;4780482;30;20528;-90
2023/09/05 09:57:05;;;;;;;7.10;3.35;;;21.80;60.80;;;;;;4775174;30;20051;-90
2023/09/05 09:59:37;;;;;;;7.35;3.30;;;21.90;60.50;;;;;;4774880;30;20055;-90
2023/09/05 10:02:11;;;;;;;8.35;3.20;;;21.90;59.70;;;;;;4775161;30;20055;-90
2023/09/05 10:04:42;;;;;;;8.20;2.88;;;21.90;58.90;;;;;;4774909;30;20433;-90
2023/09/05 10:07:17;;;;;;;8.70;2.93;;;21.90;57.70;;;;;;4760276;30;20460;-90
2023/09/05 10:09:47;;;;;;;7.68;3.28;;;21.90;58.80;;;;;;4774591;30;20510;-89
2023/09/05 10:12:20;;;;;;;7.25;3.03;;;21.90;59.40;;;;;;4774827;30;20142;-89
2023/09/05 10:14:49;;;;;;;8.85;3.08;;;22.00;58.40;;;;;;4774702;30;20124;-90
2023/09/05 10:17:19;;;;;;;7.32;2.70;;;22.00;58.80;;;;;;4760000;30;20051;-90
2023/09/05 10:19:49;;;;;;;8.63;3.07;;;22.10;57.60;;;;;;4773972;30;20062;-90
2023/09/05 10:22:16;;;;;;;8.18;3.55;;;22.20;60.30;;;;;;4774681;30;20047;-90
2023/09/05 10:24:45;;;;;;;7.47;3.20;;;22.40;58.90;;;;;;4759740;30;20122;-91
2023/09/05 10:27:12;;;;;;;8.43;3.83;;;22.40;59.10;;;;;;4774624;30;20061;-89
2023/09/05 10:29:41;;;;;;;9.73;3.30;;;22.40;59.30;;;;;;4759729;30;20055;-89
2023/09/05 10:32:14;;;;;;;6.77;2.83;;;22.50;59.40;;;;;;4774396;30;20124;-90
2023/09/05 10:34:47;;;;;;;8.30;3.13;;;22.60;57.90;;;;;;4786063;29;20058;-89
2023/09/05 10:37:17;;;;;;;7.72;2.70;;;22.60;56.20;;;;;;4792195;29;20089;-91
2023/09/05 10:39:54;;;;;;;7.90;2.92;;;22.70;56.00;;;;;;4791954;29;20524;-90
2023/09/05 10:42:28;;;;;;;7.65;3.50;;;22.80;56.90;;;;;;4791975;29;20496;-90
2023/09/05 10:44:56;;;;;;;8.90;3.80;;;22.80;58.30;;;;;;4791909;29;20146;-89
2023/09/05 10:47:27;;;;;;;6.95;2.65;;;22.80;57.90;;;;;;4777113;29;20103;-90
2023/09/05 10:50:05;;;;;;;6.90;2.30;;;22.80;55.20;;;;;;4791990;29;20074;-89
2023/09/05 10:52:32;;;;;;;5.97;2.60;;;22.90;58.50;;;;;;4791636;29;20054;-90
2023/09/05 10:55:27;;;;;;;6.50;2.55;;;23.00;54.90;;;;;;4791862;29;20054;-90
2023/09/05 10:57:54;;;;;;;6.77;2.73;;;23.00;54.60;;;;;;4783446;29;20093;-90
2023/09/05 11:00:22;;;;;;;7.90;2.70;;;23.00;54.40;;;;;;4777041;29;20055;-90
2023/09/05 11:02:50;;;;;;;7.50;3.17;;;23.00;57.80;;;;;;4791759;29;20417;-90
2023/09/05 11:05:18;;;;;;;7.20;3.22;;;23.00;58.60;;;;;;4791516;29;20047;-90
2023/09/05 11:07:46;;;;;;;9.25;3.30;;;23.00;54.50;;;;;;4791553;29;20119;-90
2023/09/05 11:10:34;;;;;;;7.23;2.90;;;23.00;56.80;;;;;;4791765;29;20046;-89
2023/09/05 11:13:10;;;;;;;6.40;2.72;;;23.10;56.30;;;;;;4791879;29;20047;-90
2023/09/05 11:15:43;;;;;;;7.88;3.20;;;23.30;57.40;;;;;;4776688;29;20047;-89
2023/09/05 11:18:12;;;;;;;7.47;3.25;;;23.40;58.00;;;;;;4791307;29;20103;-89
2023/09/05 11:20:48;;;;;;;8.80;3.13;;;23.40;56.70;;;;;;4776418;29;20576;-89
2023/09/05 11:23:29;;;;;;;7.63;2.80;;;23.50;56.10;;;;;;4763416;29;20524;-89
2023/09/05 11:26:03;;;;;;;7.65;2.80;;;23.30;53.20;;;;;;4791120;29;20440;-90
2023/09/05 11:28:30;;;;;;;8.30;3.22;;;23.30;56.00;;;;;;4791212;29;20055;-89
2023/09/05 11:31:03;;;;;;;6.22;3.10;;;23.40;56.10;;;;;;4790160;29;20043;-89
2023/09/05 11:33:32;;;;;;;6.63;2.97;;;23.50;56.10;;;;;;4791368;29;20107;-90
2023/09/05 11:36:04;;;;;;;7.73;2.80;;;23.60;56.50;;;;;;4791271;29;20051;-90
2023/09/05 11:38:48;;;;;;;6.40;2.83;;;23.70;54.50;;;;;;4791120;29;20050;-90
2023/09/05 11:41:18;;;;;;;7.47;2.78;;;23.80;54.10;;;;;;4791168;29;20505;-90
2023/09/05 11:44:04;;;;;;;7.22;3.10;;;23.80;55.90;;;;;;4794056;29;20062;-90
2023/09/05 11:46:34;;;;;;;8.73;3.15;;;24.00;53.60;;;;;;4770249;30;20044;-89
2023/09/05 11:49:03;;;;;;;6.07;2.57;;;23.90;54.20;;;;;;4773563;29;20051;-89
2023/09/05 11:51:30;;;;;;;8.65;3.25;;;23.80;52.30;;;;;;4806830;29;20517;-89
2023/09/05 11:53:58;;;;;;;7.72;3.20;;;23.90;55.30;;;;;;4791198;29;20081;-89
2023/09/05 11:56:26;;;;;;;7.45;3.05;;;23.90;53.50;;;;;;4786170;30;20452;-89
2023/09/05 11:58:53;;;;;;;6.43;2.78;;;23.90;53.90;;;;;;4770749;29;20058;-89
2023/09/05 12:01:27;;;;;;;6.80;3.23;;;23.90;54.70;;;;;;4790644;29;20053;-88
2023/09/05 12:04:06;;;;;;;9.13;2.90;;;24.00;54.20;;;;;;4790720;29;20054;-89
2023/09/05 12:06:36;;;;;;;7.70;3.10;;;24.10;53.50;;;;;;4788737;29;20047;-88
2023/09/05 12:09:22;;;;;;;7.10;2.70;;;24.10;51.10;;;;;;4788090;30;20058;-89
2023/09/05 12:11:50;;;;;;;7.85;2.70;;;24.10;51.50;;;;;;4775317;30;20101;-89
2023/09/05 12:14:17;;;;;;;6.13;2.30;;;24.10;51.70;;;;;;4772947;30;20051;-89
2023/09/05 12:16:47;;;;;;;6.60;2.85;;;24.10;53.30;;;;;;4781881;30;20055;-89
2023/09/05 12:19:16;;;;;;;6.07;2.53;;;24.20;51.80;;;;;;4787490;30;20068;-89
2023/09/05 12:21:45;;;;;;;6.22;2.53;;;24.20;52.20;;;;;;4782080;30;20579;-89
2023/09/05 12:24:23;;;;;;;6.68;2.63;;;24.20;51.50;;;;;;4787403;30;20051;-89
2023/09/05 12:26:52;;;;;;;6.27;2.80;;;24.20;50.80;;;;;;4782483;30;20047;-89
2023/09/05 12:29:21;;;;;;;6.13;2.78;;;24.30;52.20;;;;;;4772943;30;20047;-89
2023/09/05 12:31:50;;;;;;;11.57;3.00;;;24.30;52.10;;;;;;4782593;30;20051;-89
2023/09/05 12:34:18;;;;;;;6.18;2.60;;;24.40;53.20;;;;;;4787619;30;20074;-91
2023/09/05 12:36:45;;;;;;;6.50;2.80;;;24.50;52.30;;;;;;4782302;30;20089;-90
2023/09/05 12:39:12;;;;;;;7.20;2.47;;;24.50;51.20;;;;;;4787405;30;20051;-91
2023/09/05 12:41:39;;;;;;;6.45;3.00;;;24.50;49.80;;;;;;4782123;29;20055;-90
2023/09/05 12:44:06;;;;;;;6.15;2.60;;;24.30;53.10;;;;;;4790843;30;20046;-89
2023/09/05 12:46:34;;;;;;;11.02;3.10;;;24.40;52.20;;;;;;4783605;30;20051;-89
2023/09/05 12:49:02;;;;;;;7.03;3.10;;;24.50;51.60;;;;;;4790943;30;20149;-89
2023/09/05 12:51:30;;;;;;;6.07;2.50;;;24.50;52.40;;;;;;4776097;30;20051;-90